sensor_id;sensor_type;location;lat;lon;timestamp;P1;durP1;ratioP1;P2;durP2;ratioP2
11348;SDS011;5729;43.570;27.826;2023-04-06T00:00:37;17.53;;;10.67;;
11348;SDS011;5729;43.570;27.826;2023-04-06T00:03:02;13.37;;;9.63;;
11348;SDS011;5729;43.570;27.826;2023-04-06T00:05:28;14.23;;;10.30;;
11348;SDS011;5729;43.570;27.826;2023-04-06T00:07:56;15.77;;;10.63;;
11348;SDS011;5729;43.570;27.826;2023-04-06T00:10:22;15.93;;;11.17;;
11348;SDS011;5729;43.570;27.826;2023-04-06T00:12:48;15.23;;;10.00;;
11348;SDS011;5729;43.570;27.826;2023-04-06T00:15:13;13.87;;;10.40;;
11348;SDS011;5729;43.570;27.826;2023-04-06T00:17:39;12.17;;;8.87;;
11348;SDS011;5729;43.570;27.826;2023-04-06T00:20:06;13.30;;;9.70;;
11348;SDS011;5729;43.570;27.826;2023-04-06T00:22:33;10.57;;;8.37;;
11348;SDS011;5729;43.570;27.826;2023-04-06T00:24:58;10.07;;;8.03;;
11348;SDS011;5729;43.570;27.826;2023-04-06T00:27:24;10.63;;;7.77;;
11348;SDS011;5729;43.570;27.826;2023-04-06T00:29:50;8.47;;;6.87;;
11348;SDS011;5729;43.570;27.826;2023-04-06T00:32:15;11.37;;;7.83;;
11348;SDS011;5729;43.570;27.826;2023-04-06T00:34:41;10.47;;;6.57;;
11348;SDS011;5729;43.570;27.826;2023-04-06T00:37:06;9.37;;;7.30;;
11348;SDS011;5729;43.570;27.826;2023-04-06T00:39:32;12.17;;;6.00;;
11348;SDS011;5729;43.570;27.826;2023-04-06T00:41:57;11.03;;;7.10;;
11348;SDS011;5729;43.570;27.826;2023-04-06T00:44:23;7.83;;;5.87;;
11348;SDS011;5729;43.570;27.826;2023-04-06T00:46:49;7.87;;;6.00;;
11348;SDS011;5729;43.570;27.826;2023-04-06T00:49:15;10.80;;;5.70;;
11348;SDS011;5729;43.570;27.826;2023-04-06T00:51:40;8.77;;;6.50;;
11348;SDS011;5729;43.570;27.826;2023-04-06T00:54:06;8.13;;;6.40;;
11348;SDS011;5729;43.570;27.826;2023-04-06T00:56:31;7.93;;;6.43;;
11348;SDS011;5729;43.570;27.826;2023-04-06T00:58:57;10.57;;;6.67;;
11348;SDS011;5729;43.570;27.826;2023-04-06T01:01:23;8.40;;;6.50;;
11348;SDS011;5729;43.570;27.826;2023-04-06T01:03:49;10.40;;;7.10;;
11348;SDS011;5729;43.570;27.826;2023-04-06T01:06:15;8.90;;;7.10;;
11348;SDS011;5729;43.570;27.826;2023-04-06T01:08:41;7.73;;;6.23;;
11348;SDS011;5729;43.570;27.826;2023-04-06T01:11:06;9.20;;;6.60;;
11348;SDS011;5729;43.570;27.826;2023-04-06T01:13:32;7.13;;;6.30;;
11348;SDS011;5729;43.570;27.826;2023-04-06T01:15:57;8.53;;;6.73;;
11348;SDS011;5729;43.570;27.826;2023-04-06T01:18:26;7.80;;;6.43;;
11348;SDS011;5729;43.570;27.826;2023-04-06T01:20:52;9.20;;;6.43;;
11348;SDS011;5729;43.570;27.826;2023-04-06T01:23:18;8.87;;;6.40;;
11348;SDS011;5729;43.570;27.826;2023-04-06T01:25:44;7.33;;;6.27;;
11348;SDS011;5729;43.570;27.826;2023-04-06T01:28:09;7.60;;;5.90;;
11348;SDS011;5729;43.570;27.826;2023-04-06T01:30:35;8.03;;;6.17;;
11348;SDS011;5729;43.570;27.826;2023-04-06T01:33:00;9.43;;;6.43;;
11348;SDS011;5729;43.570;27.826;2023-04-06T01:35:26;8.17;;;5.90;;
11348;SDS011;5729;43.570;27.826;2023-04-06T01:37:52;7.90;;;6.20;;
11348;SDS011;5729;43.570;27.826;2023-04-06T01:40:18;8.90;;;6.80;;
11348;SDS011;5729;43.570;27.826;2023-04-06T01:42:43;9.03;;;6.57;;
11348;SDS011;5729;43.570;27.826;2023-04-06T01:45:09;11.47;;;6.53;;
11348;SDS011;5729;43.570;27.826;2023-04-06T01:47:35;8.07;;;6.37;;
11348;SDS011;5729;43.570;27.826;2023-04-06T01:50:00;10.33;;;7.00;;
11348;SDS011;5729;43.570;27.826;2023-04-06T01:52:28;10.50;;;5.73;;
11348;SDS011;5729;43.570;27.826;2023-04-06T01:54:54;8.33;;;6.17;;
11348;SDS011;5729;43.570;27.826;2023-04-06T01:57:19;9.80;;;7.27;;
11348;SDS011;5729;43.570;27.826;2023-04-06T01:59:45;8.17;;;6.13;;
11348;SDS011;5729;43.570;27.826;2023-04-06T02:02:10;9.90;;;6.60;;
11348;SDS011;5729;43.570;27.826;2023-04-06T02:04:37;10.30;;;7.03;;
11348;SDS011;5729;43.570;27.826;2023-04-06T02:07:03;10.37;;;8.13;;
11348;SDS011;5729;43.570;27.826;2023-04-06T02:09:29;9.53;;;7.07;;
11348;SDS011;5729;43.570;27.826;2023-04-06T02:11:54;9.87;;;7.13;;
11348;SDS011;5729;43.570;27.826;2023-04-06T02:14:20;9.53;;;7.10;;
11348;SDS011;5729;43.570;27.826;2023-04-06T02:16:46;10.07;;;7.20;;
11348;SDS011;5729;43.570;27.826;2023-04-06T02:19:11;8.23;;;6.53;;
11348;SDS011;5729;43.570;27.826;2023-04-06T02:21:37;9.53;;;7.67;;
11348;SDS011;5729;43.570;27.826;2023-04-06T02:24:03;9.23;;;8.00;;
11348;SDS011;5729;43.570;27.826;2023-04-06T02:26:28;8.53;;;6.67;;
11348;SDS011;5729;43.570;27.826;2023-04-06T02:28:54;9.40;;;7.30;;
11348;SDS011;5729;43.570;27.826;2023-04-06T02:31:20;9.37;;;7.07;;
11348;SDS011;5729;43.570;27.826;2023-04-06T02:33:45;11.07;;;7.30;;
11348;SDS011;5729;43.570;27.826;2023-04-06T02:36:11;9.17;;;7.70;;
11348;SDS011;5729;43.570;27.826;2023-04-06T02:38:36;8.73;;;7.13;;
11348;SDS011;5729;43.570;27.826;2023-04-06T02:41:02;9.17;;;6.87;;
11348;SDS011;5729;43.570;27.826;2023-04-06T02:43:27;9.17;;;7.20;;
11348;SDS011;5729;43.570;27.826;2023-04-06T02:45:52;9.30;;;7.37;;
11348;SDS011;5729;43.570;27.826;2023-04-06T02:48:18;9.83;;;8.10;;
11348;SDS011;5729;43.570;27.826;2023-04-06T02:50:43;9.40;;;7.87;;
11348;SDS011;5729;43.570;27.826;2023-04-06T02:53:09;10.47;;;7.43;;
11348;SDS011;5729;43.570;27.826;2023-04-06T02:55:35;10.03;;;7.30;;
11348;SDS011;5729;43.570;27.826;2023-04-06T02:58:00;7.67;;;6.43;;
11348;SDS011;5729;43.570;27.826;2023-04-06T03:00:26;9.20;;;7.53;;
11348;SDS011;5729;43.570;27.826;2023-04-06T03:02:51;11.87;;;8.33;;
11348;SDS011;5729;43.570;27.826;2023-04-06T03:05:17;9.83;;;8.17;;
11348;SDS011;5729;43.570;27.826;2023-04-06T03:07:42;14.93;;;8.07;;
11348;SDS011;5729;43.570;27.826;2023-04-06T03:10:08;10.20;;;7.50;;
11348;SDS011;5729;43.570;27.826;2023-04-06T03:12:34;10.17;;;7.63;;
11348;SDS011;5729;43.570;27.826;2023-04-06T03:15:00;9.97;;;7.40;;
11348;SDS011;5729;43.570;27.826;2023-04-06T03:17:25;10.57;;;8.00;;
11348;SDS011;5729;43.570;27.826;2023-04-06T03:19:51;10.00;;;7.50;;
11348;SDS011;5729;43.570;27.826;2023-04-06T03:22:16;10.83;;;7.80;;
11348;SDS011;5729;43.570;27.826;2023-04-06T03:24:42;9.70;;;8.03;;
11348;SDS011;5729;43.570;27.826;2023-04-06T03:27:07;12.77;;;8.17;;
11348;SDS011;5729;43.570;27.826;2023-04-06T03:29:33;10.27;;;7.93;;
11348;SDS011;5729;43.570;27.826;2023-04-06T03:31:58;10.03;;;6.90;;
11348;SDS011;5729;43.570;27.826;2023-04-06T03:34:24;9.50;;;7.53;;
11348;SDS011;5729;43.570;27.826;2023-04-06T03:36:49;9.83;;;7.87;;
11348;SDS011;5729;43.570;27.826;2023-04-06T03:39:15;11.20;;;8.70;;
11348;SDS011;5729;43.570;27.826;2023-04-06T03:41:40;10.00;;;8.23;;
11348;SDS011;5729;43.570;27.826;2023-04-06T03:44:06;9.50;;;7.93;;
11348;SDS011;5729;43.570;27.826;2023-04-06T03:46:31;11.57;;;7.47;;
11348;SDS011;5729;43.570;27.826;2023-04-06T03:48:57;12.23;;;8.53;;
11348;SDS011;5729;43.570;27.826;2023-04-06T03:51:22;12.00;;;9.07;;
11348;SDS011;5729;43.570;27.826;2023-04-06T03:53:48;10.00;;;8.60;;
11348;SDS011;5729;43.570;27.826;2023-04-06T03:56:13;12.23;;;8.80;;
11348;SDS011;5729;43.570;27.826;2023-04-06T03:58:39;11.17;;;8.77;;
11348;SDS011;5729;43.570;27.826;2023-04-06T04:01:05;14.63;;;8.50;;
11348;SDS011;5729;43.570;27.826;2023-04-06T04:03:30;10.37;;;9.23;;
11348;SDS011;5729;43.570;27.826;2023-04-06T04:05:56;10.73;;;8.70;;
11348;SDS011;5729;43.570;27.826;2023-04-06T04:08:21;11.53;;;8.50;;
11348;SDS011;5729;43.570;27.826;2023-04-06T04:10:47;11.77;;;8.23;;
11348;SDS011;5729;43.570;27.826;2023-04-06T04:13:12;10.20;;;7.83;;
11348;SDS011;5729;43.570;27.826;2023-04-06T04:15:37;12.07;;;7.77;;
11348;SDS011;5729;43.570;27.826;2023-04-06T04:18:03;12.57;;;9.07;;
11348;SDS011;5729;43.570;27.826;2023-04-06T04:20:28;9.27;;;7.40;;
11348;SDS011;5729;43.570;27.826;2023-04-06T04:22:54;12.83;;;8.73;;
11348;SDS011;5729;43.570;27.826;2023-04-06T04:25:19;15.70;;;10.50;;
11348;SDS011;5729;43.570;27.826;2023-04-06T04:27:45;11.50;;;7.83;;
11348;SDS011;5729;43.570;27.826;2023-04-06T04:30:10;10.40;;;8.53;;
11348;SDS011;5729;43.570;27.826;2023-04-06T04:32:36;12.10;;;8.73;;
11348;SDS011;5729;43.570;27.826;2023-04-06T04:35:01;9.63;;;8.17;;
11348;SDS011;5729;43.570;27.826;2023-04-06T04:37:27;15.67;;;9.07;;
11348;SDS011;5729;43.570;27.826;2023-04-06T04:39:53;11.57;;;8.67;;
11348;SDS011;5729;43.570;27.826;2023-04-06T04:42:18;10.83;;;8.53;;
11348;SDS011;5729;43.570;27.826;2023-04-06T04:44:44;10.63;;;7.87;;
11348;SDS011;5729;43.570;27.826;2023-04-06T04:47:09;11.83;;;8.70;;
11348;SDS011;5729;43.570;27.826;2023-04-06T04:49:35;10.90;;;8.70;;
11348;SDS011;5729;43.570;27.826;2023-04-06T04:52:00;8.50;;;6.93;;
11348;SDS011;5729;43.570;27.826;2023-04-06T04:54:26;11.37;;;8.47;;
11348;SDS011;5729;43.570;27.826;2023-04-06T04:56:51;39.33;;;20.90;;
11348;SDS011;5729;43.570;27.826;2023-04-06T04:59:17;21.90;;;12.33;;
11348;SDS011;5729;43.570;27.826;2023-04-06T05:01:42;23.90;;;15.80;;
11348;SDS011;5729;43.570;27.826;2023-04-06T05:04:08;11.40;;;8.83;;
11348;SDS011;5729;43.570;27.826;2023-04-06T05:06:33;12.93;;;8.93;;
11348;SDS011;5729;43.570;27.826;2023-04-06T05:08:59;10.53;;;9.27;;
11348;SDS011;5729;43.570;27.826;2023-04-06T05:11:25;11.70;;;8.67;;
11348;SDS011;5729;43.570;27.826;2023-04-06T05:13:51;10.83;;;8.27;;
11348;SDS011;5729;43.570;27.826;2023-04-06T05:16:16;12.60;;;9.60;;
11348;SDS011;5729;43.570;27.826;2023-04-06T05:18:42;11.97;;;9.50;;
11348;SDS011;5729;43.570;27.826;2023-04-06T05:21:07;11.83;;;8.40;;
11348;SDS011;5729;43.570;27.826;2023-04-06T05:23:34;12.37;;;8.90;;
11348;SDS011;5729;43.570;27.826;2023-04-06T05:26:00;12.23;;;9.20;;
11348;SDS011;5729;43.570;27.826;2023-04-06T05:28:25;9.07;;;7.83;;
11348;SDS011;5729;43.570;27.826;2023-04-06T05:30:51;11.37;;;8.20;;
11348;SDS011;5729;43.570;27.826;2023-04-06T05:33:16;9.30;;;7.60;;
11348;SDS011;5729;43.570;27.826;2023-04-06T05:35:42;16.10;;;10.73;;
11348;SDS011;5729;43.570;27.826;2023-04-06T05:38:07;9.63;;;7.50;;
11348;SDS011;5729;43.570;27.826;2023-04-06T05:40:34;12.00;;;9.40;;
11348;SDS011;5729;43.570;27.826;2023-04-06T05:43:00;11.83;;;8.27;;
11348;SDS011;5729;43.570;27.826;2023-04-06T05:45:25;9.60;;;7.80;;
11348;SDS011;5729;43.570;27.826;2023-04-06T05:47:51;11.80;;;8.93;;
11348;SDS011;5729;43.570;27.826;2023-04-06T05:50:16;11.67;;;8.90;;
11348;SDS011;5729;43.570;27.826;2023-04-06T05:52:42;16.30;;;11.87;;
11348;SDS011;5729;43.570;27.826;2023-04-06T05:55:10;17.63;;;8.97;;
11348;SDS011;5729;43.570;27.826;2023-04-06T05:57:36;8.57;;;6.67;;
11348;SDS011;5729;43.570;27.826;2023-04-06T06:00:02;11.27;;;8.03;;
11348;SDS011;5729;43.570;27.826;2023-04-06T06:02:30;9.97;;;6.90;;
11348;SDS011;5729;43.570;27.826;2023-04-06T06:04:55;10.07;;;6.97;;
11348;SDS011;5729;43.570;27.826;2023-04-06T06:07:22;12.43;;;7.97;;
11348;SDS011;5729;43.570;27.826;2023-04-06T06:09:48;14.73;;;7.90;;
11348;SDS011;5729;43.570;27.826;2023-04-06T06:12:14;9.83;;;8.33;;
11348;SDS011;5729;43.570;27.826;2023-04-06T06:14:40;14.40;;;9.33;;
11348;SDS011;5729;43.570;27.826;2023-04-06T06:17:05;10.60;;;7.63;;
11348;SDS011;5729;43.570;27.826;2023-04-06T06:19:31;12.87;;;8.77;;
11348;SDS011;5729;43.570;27.826;2023-04-06T06:21:56;10.37;;;8.17;;
11348;SDS011;5729;43.570;27.826;2023-04-06T06:24:22;10.30;;;8.43;;
11348;SDS011;5729;43.570;27.826;2023-04-06T06:26:47;10.80;;;8.37;;
11348;SDS011;5729;43.570;27.826;2023-04-06T06:29:13;11.50;;;8.90;;
11348;SDS011;5729;43.570;27.826;2023-04-06T06:31:39;13.67;;;10.13;;
11348;SDS011;5729;43.570;27.826;2023-04-06T06:34:05;10.80;;;8.33;;
11348;SDS011;5729;43.570;27.826;2023-04-06T06:36:31;10.33;;;7.90;;
11348;SDS011;5729;43.570;27.826;2023-04-06T06:38:57;11.90;;;7.97;;
11348;SDS011;5729;43.570;27.826;2023-04-06T06:41:23;10.00;;;7.47;;
11348;SDS011;5729;43.570;27.826;2023-04-06T06:43:51;11.27;;;9.40;;
11348;SDS011;5729;43.570;27.826;2023-04-06T06:46:16;15.77;;;9.40;;
11348;SDS011;5729;43.570;27.826;2023-04-06T06:48:42;12.60;;;7.97;;
11348;SDS011;5729;43.570;27.826;2023-04-06T06:51:07;12.47;;;9.10;;
11348;SDS011;5729;43.570;27.826;2023-04-06T06:53:34;12.77;;;9.13;;
11348;SDS011;5729;43.570;27.826;2023-04-06T06:56:00;13.70;;;10.57;;
11348;SDS011;5729;43.570;27.826;2023-04-06T06:58:25;10.30;;;8.25;;
11348;SDS011;5729;43.570;27.826;2023-04-06T07:00:55;10.13;;;7.80;;
11348;SDS011;5729;43.570;27.826;2023-04-06T07:03:22;15.63;;;8.70;;
11348;SDS011;5729;43.570;27.826;2023-04-06T07:05:48;11.30;;;7.50;;
11348;SDS011;5729;43.570;27.826;2023-04-06T07:08:18;9.52;;;7.10;;
11348;SDS011;5729;43.570;27.826;2023-04-06T07:10:47;9.27;;;7.47;;
11348;SDS011;5729;43.570;27.826;2023-04-06T07:13:13;15.32;;;7.82;;
11348;SDS011;5729;43.570;27.826;2023-04-06T07:15:45;10.27;;;7.07;;
11348;SDS011;5729;43.570;27.826;2023-04-06T07:18:11;10.57;;;9.25;;
11348;SDS011;5729;43.570;27.826;2023-04-06T07:20:36;13.32;;;8.75;;
11348;SDS011;5729;43.570;27.826;2023-04-06T07:23:02;9.25;;;7.68;;
11348;SDS011;5729;43.570;27.826;2023-04-06T07:25:27;12.10;;;8.93;;
11348;SDS011;5729;43.570;27.826;2023-04-06T07:27:54;12.77;;;9.52;;
11348;SDS011;5729;43.570;27.826;2023-04-06T07:30:19;15.43;;;8.70;;
11348;SDS011;5729;43.570;27.826;2023-04-06T07:32:46;12.73;;;8.67;;
11348;SDS011;5729;43.570;27.826;2023-04-06T07:35:12;15.13;;;9.45;;
11348;SDS011;5729;43.570;27.826;2023-04-06T07:37:38;16.38;;;9.52;;
11348;SDS011;5729;43.570;27.826;2023-04-06T07:40:03;9.43;;;7.50;;
11348;SDS011;5729;43.570;27.826;2023-04-06T07:42:29;12.70;;;8.07;;
11348;SDS011;5729;43.570;27.826;2023-04-06T07:44:54;10.02;;;8.07;;
11348;SDS011;5729;43.570;27.826;2023-04-06T07:47:20;10.75;;;7.75;;
11348;SDS011;5729;43.570;27.826;2023-04-06T07:49:46;11.30;;;8.85;;
11348;SDS011;5729;43.570;27.826;2023-04-06T07:52:12;10.85;;;7.82;;
11348;SDS011;5729;43.570;27.826;2023-04-06T07:54:38;14.18;;;9.27;;
11348;SDS011;5729;43.570;27.826;2023-04-06T07:57:05;11.00;;;7.95;;
11348;SDS011;5729;43.570;27.826;2023-04-06T07:59:30;9.45;;;7.25;;
11348;SDS011;5729;43.570;27.826;2023-04-06T08:01:56;13.63;;;8.77;;
11348;SDS011;5729;43.570;27.826;2023-04-06T08:04:21;15.85;;;12.32;;
11348;SDS011;5729;43.570;27.826;2023-04-06T08:06:47;11.40;;;8.20;;
11348;SDS011;5729;43.570;27.826;2023-04-06T08:09:12;12.88;;;8.18;;
11348;SDS011;5729;43.570;27.826;2023-04-06T08:11:38;10.73;;;8.93;;
11348;SDS011;5729;43.570;27.826;2023-04-06T08:14:03;13.02;;;8.43;;
11348;SDS011;5729;43.570;27.826;2023-04-06T08:16:29;14.48;;;9.23;;
11348;SDS011;5729;43.570;27.826;2023-04-06T08:18:54;11.73;;;9.55;;
11348;SDS011;5729;43.570;27.826;2023-04-06T08:21:20;11.02;;;8.13;;
11348;SDS011;5729;43.570;27.826;2023-04-06T08:23:45;10.65;;;7.60;;
11348;SDS011;5729;43.570;27.826;2023-04-06T08:26:11;10.98;;;7.43;;
11348;SDS011;5729;43.570;27.826;2023-04-06T08:28:37;14.02;;;7.93;;
11348;SDS011;5729;43.570;27.826;2023-04-06T08:31:03;10.10;;;7.63;;
11348;SDS011;5729;43.570;27.826;2023-04-06T08:33:35;8.75;;;6.65;;
11348;SDS011;5729;43.570;27.826;2023-04-06T08:36:11;9.32;;;6.68;;
11348;SDS011;5729;43.570;27.826;2023-04-06T08:38:38;9.05;;;6.85;;
11348;SDS011;5729;43.570;27.826;2023-04-06T08:41:10;23.00;;;15.30;;
11348;SDS011;5729;43.570;27.826;2023-04-06T08:46:09;11.52;;;6.60;;
11348;SDS011;5729;43.570;27.826;2023-04-06T08:48:36;12.63;;;6.97;;
11348;SDS011;5729;43.570;27.826;2023-04-06T08:51:04;11.57;;;7.70;;
11348;SDS011;5729;43.570;27.826;2023-04-06T08:53:30;6.68;;;5.97;;
11348;SDS011;5729;43.570;27.826;2023-04-06T08:55:56;7.60;;;5.72;;
11348;SDS011;5729;43.570;27.826;2023-04-06T08:58:24;11.20;;;7.65;;
11348;SDS011;5729;43.570;27.826;2023-04-06T09:00:53;9.73;;;7.40;;
11348;SDS011;5729;43.570;27.826;2023-04-06T09:03:19;11.13;;;7.80;;
11348;SDS011;5729;43.570;27.826;2023-04-06T09:05:46;11.30;;;7.20;;
11348;SDS011;5729;43.570;27.826;2023-04-06T09:08:12;18.65;;;10.52;;
11348;SDS011;5729;43.570;27.826;2023-04-06T09:10:41;11.55;;;8.68;;
11348;SDS011;5729;43.570;27.826;2023-04-06T09:13:07;12.30;;;8.70;;
11348;SDS011;5729;43.570;27.826;2023-04-06T09:15:34;11.35;;;8.20;;
11348;SDS011;5729;43.570;27.826;2023-04-06T09:18:00;6.25;;;5.63;;
11348;SDS011;5729;43.570;27.826;2023-04-06T09:20:25;12.05;;;7.07;;
11348;SDS011;5729;43.570;27.826;2023-04-06T09:22:53;9.52;;;7.25;;
11348;SDS011;5729;43.570;27.826;2023-04-06T09:25:20;13.07;;;9.20;;
11348;SDS011;5729;43.570;27.826;2023-04-06T09:27:48;9.70;;;7.78;;
11348;SDS011;5729;43.570;27.826;2023-04-06T09:30:23;10.13;;;8.98;;
11348;SDS011;5729;43.570;27.826;2023-04-06T09:32:54;10.10;;;8.45;;
11348;SDS011;5729;43.570;27.826;2023-04-06T09:35:21;13.13;;;8.25;;
11348;SDS011;5729;43.570;27.826;2023-04-06T09:37:48;17.35;;;11.52;;
11348;SDS011;5729;43.570;27.826;2023-04-06T09:40:15;11.73;;;7.75;;
11348;SDS011;5729;43.570;27.826;2023-04-06T09:42:44;9.85;;;7.65;;
11348;SDS011;5729;43.570;27.826;2023-04-06T09:45:11;12.30;;;8.68;;
11348;SDS011;5729;43.570;27.826;2023-04-06T09:47:37;10.73;;;7.90;;
11348;SDS011;5729;43.570;27.826;2023-04-06T09:50:05;11.00;;;8.52;;
11348;SDS011;5729;43.570;27.826;2023-04-06T09:52:36;12.63;;;8.95;;
11348;SDS011;5729;43.570;27.826;2023-04-06T09:55:05;9.60;;;7.97;;
11348;SDS011;5729;43.570;27.826;2023-04-06T10:00:14;10.70;;;8.15;;
11348;SDS011;5729;43.570;27.826;2023-04-06T10:02:58;11.77;;;8.65;;
11348;SDS011;5729;43.570;27.826;2023-04-06T10:08:13;9.20;;;7.25;;
11348;SDS011;5729;43.570;27.826;2023-04-06T10:10:40;15.73;;;8.30;;
11348;SDS011;5729;43.570;27.826;2023-04-06T10:13:06;20.08;;;11.10;;
11348;SDS011;5729;43.570;27.826;2023-04-06T10:15:35;21.73;;;11.52;;
11348;SDS011;5729;43.570;27.826;2023-04-06T10:18:03;38.90;;;25.07;;
11348;SDS011;5729;43.570;27.826;2023-04-06T10:20:31;22.13;;;12.75;;
11348;SDS011;5729;43.570;27.826;2023-04-06T10:23:09;17.70;;;11.25;;
11348;SDS011;5729;43.570;27.826;2023-04-06T10:25:54;18.52;;;11.55;;
11348;SDS011;5729;43.570;27.826;2023-04-06T10:28:23;30.67;;;19.02;;
11348;SDS011;5729;43.570;27.826;2023-04-06T10:30:49;12.95;;;8.15;;
11348;SDS011;5729;43.570;27.826;2023-04-06T10:33:22;11.40;;;7.53;;
11348;SDS011;5729;43.570;27.826;2023-04-06T10:35:47;16.38;;;9.18;;
11348;SDS011;5729;43.570;27.826;2023-04-06T10:38:13;12.20;;;8.88;;
11348;SDS011;5729;43.570;27.826;2023-04-06T10:40:40;15.48;;;9.57;;
11348;SDS011;5729;43.570;27.826;2023-04-06T10:43:09;14.75;;;10.45;;
11348;SDS011;5729;43.570;27.826;2023-04-06T10:45:36;17.27;;;11.95;;
11348;SDS011;5729;43.570;27.826;2023-04-06T10:50:41;23.77;;;13.35;;
11348;SDS011;5729;43.570;27.826;2023-04-06T10:53:08;22.08;;;14.50;;
11348;SDS011;5729;43.570;27.826;2023-04-06T10:55:34;10.45;;;8.00;;
11348;SDS011;5729;43.570;27.826;2023-04-06T10:58:07;10.40;;;7.20;;
11348;SDS011;5729;43.570;27.826;2023-04-06T11:00:34;12.13;;;9.45;;
11348;SDS011;5729;43.570;27.826;2023-04-06T11:03:00;9.85;;;7.13;;
11348;SDS011;5729;43.570;27.826;2023-04-06T11:05:27;11.00;;;7.32;;
11348;SDS011;5729;43.570;27.826;2023-04-06T11:07:52;13.07;;;7.90;;
11348;SDS011;5729;43.570;27.826;2023-04-06T11:10:21;10.98;;;6.57;;
11348;SDS011;5729;43.570;27.826;2023-04-06T11:12:52;19.02;;;9.95;;
11348;SDS011;5729;43.570;27.826;2023-04-06T11:15:19;16.38;;;9.27;;
11348;SDS011;5729;43.570;27.826;2023-04-06T11:17:45;15.32;;;10.55;;
11348;SDS011;5729;43.570;27.826;2023-04-06T11:20:10;14.63;;;9.40;;
11348;SDS011;5729;43.570;27.826;2023-04-06T11:22:47;12.07;;;8.65;;
11348;SDS011;5729;43.570;27.826;2023-04-06T11:25:16;9.98;;;7.75;;
11348;SDS011;5729;43.570;27.826;2023-04-06T11:27:42;9.57;;;7.57;;
11348;SDS011;5729;43.570;27.826;2023-04-06T11:30:08;10.85;;;7.90;;
11348;SDS011;5729;43.570;27.826;2023-04-06T11:32:44;33.78;;;20.30;;
11348;SDS011;5729;43.570;27.826;2023-04-06T11:35:20;16.83;;;11.32;;
11348;SDS011;5729;43.570;27.826;2023-04-06T11:37:48;12.98;;;9.65;;
11348;SDS011;5729;43.570;27.826;2023-04-06T11:40:21;8.55;;;7.18;;
11348;SDS011;5729;43.570;27.826;2023-04-06T11:42:54;8.90;;;6.65;;
11348;SDS011;5729;43.570;27.826;2023-04-06T11:45:20;10.13;;;7.55;;
11348;SDS011;5729;43.570;27.826;2023-04-06T11:47:54;11.57;;;8.82;;
11348;SDS011;5729;43.570;27.826;2023-04-06T11:50:25;11.48;;;8.15;;
11348;SDS011;5729;43.570;27.826;2023-04-06T11:53:00;10.63;;;6.95;;
11348;SDS011;5729;43.570;27.826;2023-04-06T11:55:27;11.30;;;7.57;;
11348;SDS011;5729;43.570;27.826;2023-04-06T11:57:53;10.35;;;8.00;;
11348;SDS011;5729;43.570;27.826;2023-04-06T12:00:20;10.88;;;8.30;;
11348;SDS011;5729;43.570;27.826;2023-04-06T12:02:46;8.88;;;7.30;;
11348;SDS011;5729;43.570;27.826;2023-04-06T12:05:12;11.38;;;7.72;;
11348;SDS011;5729;43.570;27.826;2023-04-06T12:07:38;12.07;;;7.82;;
11348;SDS011;5729;43.570;27.826;2023-04-06T12:10:04;11.57;;;7.55;;
11348;SDS011;5729;43.570;27.826;2023-04-06T12:12:30;10.68;;;8.80;;
11348;SDS011;5729;43.570;27.826;2023-04-06T12:14:56;12.75;;;9.65;;
11348;SDS011;5729;43.570;27.826;2023-04-06T12:17:22;12.18;;;8.60;;
11348;SDS011;5729;43.570;27.826;2023-04-06T12:19:48;16.08;;;8.98;;
11348;SDS011;5729;43.570;27.826;2023-04-06T12:22:14;9.82;;;7.80;;
11348;SDS011;5729;43.570;27.826;2023-04-06T12:24:39;10.70;;;7.30;;
11348;SDS011;5729;43.570;27.826;2023-04-06T12:27:06;11.93;;;8.15;;
11348;SDS011;5729;43.570;27.826;2023-04-06T12:29:32;10.32;;;8.00;;
11348;SDS011;5729;43.570;27.826;2023-04-06T12:31:57;17.13;;;10.07;;
11348;SDS011;5729;43.570;27.826;2023-04-06T12:34:23;12.20;;;9.07;;
11348;SDS011;5729;43.570;27.826;2023-04-06T12:36:48;12.60;;;7.25;;
11348;SDS011;5729;43.570;27.826;2023-04-06T12:39:15;9.88;;;7.80;;
11348;SDS011;5729;43.570;27.826;2023-04-06T12:41:41;10.52;;;7.40;;
11348;SDS011;5729;43.570;27.826;2023-04-06T12:44:07;8.57;;;7.35;;
11348;SDS011;5729;43.570;27.826;2023-04-06T12:46:32;8.27;;;6.63;;
11348;SDS011;5729;43.570;27.826;2023-04-06T12:48:58;10.23;;;8.10;;
11348;SDS011;5729;43.570;27.826;2023-04-06T12:51:24;9.82;;;8.68;;
11348;SDS011;5729;43.570;27.826;2023-04-06T12:53:52;10.15;;;7.80;;
11348;SDS011;5729;43.570;27.826;2023-04-06T12:56:18;9.02;;;6.72;;
11348;SDS011;5729;43.570;27.826;2023-04-06T12:58:44;11.73;;;7.18;;
11348;SDS011;5729;43.570;27.826;2023-04-06T13:01:09;10.70;;;7.40;;
11348;SDS011;5729;43.570;27.826;2023-04-06T13:03:38;14.32;;;9.00;;
11348;SDS011;5729;43.570;27.826;2023-04-06T13:06:04;12.30;;;9.73;;
11348;SDS011;5729;43.570;27.826;2023-04-06T13:08:29;36.00;;;23.15;;
11348;SDS011;5729;43.570;27.826;2023-04-06T13:10:55;14.65;;;11.63;;
11348;SDS011;5729;43.570;27.826;2023-04-06T13:13:25;14.57;;;12.75;;
11348;SDS011;5729;43.570;27.826;2023-04-06T13:15:52;10.35;;;7.28;;
11348;SDS011;5729;43.570;27.826;2023-04-06T13:18:20;12.70;;;10.00;;
11348;SDS011;5729;43.570;27.826;2023-04-06T13:20:46;9.48;;;7.03;;
11348;SDS011;5729;43.570;27.826;2023-04-06T13:23:12;9.45;;;6.43;;
11348;SDS011;5729;43.570;27.826;2023-04-06T13:25:37;11.73;;;6.57;;
11348;SDS011;5729;43.570;27.826;2023-04-06T13:28:03;9.52;;;7.28;;
11348;SDS011;5729;43.570;27.826;2023-04-06T13:30:28;13.40;;;8.40;;
11348;SDS011;5729;43.570;27.826;2023-04-06T13:32:54;11.75;;;8.93;;
11348;SDS011;5729;43.570;27.826;2023-04-06T13:35:20;19.52;;;13.75;;
11348;SDS011;5729;43.570;27.826;2023-04-06T13:37:45;17.20;;;10.20;;
11348;SDS011;5729;43.570;27.826;2023-04-06T13:40:11;10.15;;;6.25;;
11348;SDS011;5729;43.570;27.826;2023-04-06T13:42:36;25.38;;;14.27;;
11348;SDS011;5729;43.570;27.826;2023-04-06T13:45:05;9.00;;;7.22;;
11348;SDS011;5729;43.570;27.826;2023-04-06T13:47:31;15.27;;;11.07;;
11348;SDS011;5729;43.570;27.826;2023-04-06T13:49:56;33.63;;;23.27;;
11348;SDS011;5729;43.570;27.826;2023-04-06T13:52:22;21.67;;;15.27;;
11348;SDS011;5729;43.570;27.826;2023-04-06T13:54:51;55.20;;;40.38;;
11348;SDS011;5729;43.570;27.826;2023-04-06T13:57:17;69.35;;;44.80;;
11348;SDS011;5729;43.570;27.826;2023-04-06T13:59:43;61.03;;;37.08;;
11348;SDS011;5729;43.570;27.826;2023-04-06T14:02:09;24.50;;;19.02;;
11348;SDS011;5729;43.570;27.826;2023-04-06T14:04:35;14.40;;;10.38;;
11348;SDS011;5729;43.570;27.826;2023-04-06T14:07:02;12.98;;;9.82;;
11348;SDS011;5729;43.570;27.826;2023-04-06T14:09:28;15.10;;;10.50;;
11348;SDS011;5729;43.570;27.826;2023-04-06T14:11:54;12.35;;;9.13;;
11348;SDS011;5729;43.570;27.826;2023-04-06T14:14:20;22.00;;;8.68;;
11348;SDS011;5729;43.570;27.826;2023-04-06T14:16:46;12.63;;;9.27;;
11348;SDS011;5729;43.570;27.826;2023-04-06T14:19:13;10.98;;;6.30;;
11348;SDS011;5729;43.570;27.826;2023-04-06T14:21:41;10.75;;;6.95;;
11348;SDS011;5729;43.570;27.826;2023-04-06T14:24:07;8.25;;;5.47;;
11348;SDS011;5729;43.570;27.826;2023-04-06T14:26:34;24.92;;;18.73;;
11348;SDS011;5729;43.570;27.826;2023-04-06T14:29:00;15.82;;;12.52;;
11348;SDS011;5729;43.570;27.826;2023-04-06T14:31:26;23.88;;;14.02;;
11348;SDS011;5729;43.570;27.826;2023-04-06T14:33:52;21.48;;;13.23;;
11348;SDS011;5729;43.570;27.826;2023-04-06T14:36:17;37.80;;;24.15;;
11348;SDS011;5729;43.570;27.826;2023-04-06T14:38:43;20.75;;;13.95;;
11348;SDS011;5729;43.570;27.826;2023-04-06T14:41:15;13.60;;;9.60;;